Time;durP1;ratioP1;P1;durP2;ratioP2;P2;SDS_P1;SDS_P2;PMS_P1;PMS_P2;Temp;Humidity;BMP_temperature;BMP_pressure;BME280_temperature;BME280_humidity;BME280_pressure;Samples;Min_cycle;Max_cycle;Signal;HPM_P1;HPM_P2
2022/08/16 00:02:22;;;;;;;2.42;2.00;;;20.10;57.70;;;;;;5046881;28;20120;-63
2022/08/16 00:04:49;;;;;;;2.90;2.00;;;20.00;57.70;;;;;;5060843;28;20096;-62
2022/08/16 00:07:14;;;;;;;3.38;2.42;;;20.00;57.80;;;;;;5044393;28;20103;-63
2022/08/16 00:09:40;;;;;;;2.53;2.10;;;19.90;57.80;;;;;;5063180;28;20044;-62
2022/08/16 00:12:06;;;;;;;3.95;2.15;;;19.90;57.90;;;;;;5062830;28;20036;-63
2022/08/16 00:14:32;;;;;;;3.95;2.03;;;19.90;57.90;;;;;;5058865;28;20037;-63
2022/08/16 00:16:58;;;;;;;2.95;2.10;;;19.90;58.00;;;;;;5060572;28;20032;-63
2022/08/16 00:19:28;;;;;;;2.85;2.20;;;19.80;58.00;;;;;;5058563;28;20024;-62
2022/08/16 00:21:54;;;;;;;2.97;2.03;;;19.70;58.10;;;;;;5062103;28;20116;-63
2022/08/16 00:24:21;;;;;;;3.35;2.17;;;19.70;58.10;;;;;;5060654;28;20514;-63
2022/08/16 00:26:47;;;;;;;3.33;2.30;;;19.60;58.30;;;;;;5059418;28;20446;-63
2022/08/16 00:29:15;;;;;;;2.33;2.13;;;19.50;58.40;;;;;;5059462;28;20089;-63
2022/08/16 00:31:41;;;;;;;3.85;2.67;;;19.50;58.80;;;;;;5061206;28;20032;-63
2022/08/16 00:34:06;;;;;;;2.83;2.28;;;19.50;58.90;;;;;;5059293;28;20047;-62
2022/08/16 00:36:32;;;;;;;3.05;1.95;;;19.40;59.20;;;;;;5044808;28;20033;-61
2022/08/16 00:38:58;;;;;;;3.88;2.38;;;19.40;59.60;;;;;;5061006;28;20036;-61
2022/08/16 00:41:25;;;;;;;3.30;2.47;;;19.40;59.60;;;;;;5060366;28;20462;-62
2022/08/16 00:43:51;;;;;;;3.67;2.50;;;19.40;59.50;;;;;;5060006;28;20043;-62
2022/08/16 00:46:16;;;;;;;2.90;2.65;;;19.40;59.50;;;;;;5061698;28;20021;-61
2022/08/16 00:48:43;;;;;;;3.25;2.80;;;19.40;59.40;;;;;;5059517;28;20421;-63
2022/08/16 00:51:09;;;;;;;17.92;2.50;;;19.40;59.40;;;;;;5059248;28;20035;-62
2022/08/16 00:53:35;;;;;;;5.88;2.33;;;19.30;59.50;;;;;;5060104;28;20040;-62
2022/08/16 00:56:07;;;;;;;7.43;2.67;;;19.30;59.60;;;;;;5061714;28;20021;-63
2022/08/16 00:58:36;;;;;;;4.35;1.70;;;19.30;59.80;;;;;;5080276;28;20037;-62
2022/08/16 01:01:05;;;;;;;5.15;2.75;;;19.30;60.00;;;;;;5081035;28;20111;-63
2022/08/16 01:03:31;;;;;;;4.20;2.38;;;19.30;59.80;;;;;;5079900;28;20410;-62
2022/08/16 01:05:57;;;;;;;4.10;2.58;;;19.40;59.70;;;;;;5080022;28;20051;-63
2022/08/16 01:08:26;;;;;;;3.45;2.00;;;19.30;59.60;;;;;;5081613;28;20064;-64
2022/08/16 01:10:52;;;;;;;3.88;2.90;;;19.30;60.00;;;;;;5081267;28;20076;-63
2022/08/16 01:13:24;;;;;;;3.85;2.35;;;19.30;59.60;;;;;;5079914;28;20055;-63
2022/08/16 01:16:01;;;;;;;4.28;2.47;;;19.30;59.90;;;;;;5080448;28;20039;-64
2022/08/16 01:18:33;;;;;;;3.67;2.45;;;19.30;60.10;;;;;;5077881;28;20068;-63
2022/08/16 01:21:11;;;;;;;6.97;2.67;;;19.30;60.00;;;;;;5074630;28;20158;-64
2022/08/16 01:24:08;;;;;;;3.53;2.47;;;19.40;59.70;;;;;;5079692;28;20040;-62
2022/08/16 01:26:35;;;;;;;4.95;2.40;;;19.30;59.80;;;;;;5079018;28;20398;-62
2022/08/16 01:29:06;;;;;;;2.70;2.25;;;19.30;59.10;;;;;;5080480;28;20056;-62
2022/08/16 01:31:32;;;;;;;2.85;2.22;;;19.30;59.10;;;;;;5069253;28;20091;-64
2022/08/16 01:33:58;;;;;;;3.67;2.67;;;19.20;59.40;;;;;;5077300;28;20037;-63
2022/08/16 01:36:25;;;;;;;4.75;2.72;;;19.20;59.50;;;;;;5081343;28;20513;-63
2022/08/16 01:38:50;;;;;;;4.03;2.75;;;19.20;59.50;;;;;;5070092;28;20032;-63
2022/08/16 01:41:28;;;;;;;3.15;2.33;;;19.20;59.50;;;;;;5080227;28;20411;-61
2022/08/16 01:43:54;;;;;;;3.92;2.72;;;19.20;59.80;;;;;;5080438;28;20123;-62
2022/08/16 01:46:36;;;;;;;8.93;2.97;;;19.20;59.20;;;;;;5081040;28;20048;-62
2022/08/16 01:49:09;;;;;;;4.03;2.38;;;19.10;59.50;;;;;;5079203;28;20025;-62
2022/08/16 01:51:36;;;;;;;4.68;2.22;;;19.10;59.70;;;;;;5079632;28;20025;-63
2022/08/16 01:54:02;;;;;;;5.63;3.05;;;19.10;59.70;;;;;;5077963;28;20040;-62
2022/08/16 01:56:28;;;;;;;4.15;2.60;;;19.00;59.80;;;;;;5079827;28;20069;-62
2022/08/16 01:58:57;;;;;;;3.35;2.50;;;19.00;60.00;;;;;;5081754;28;20021;-63
2022/08/16 02:01:23;;;;;;;3.47;2.78;;;19.00;60.00;;;;;;5083449;28;20059;-62
2022/08/16 02:03:49;;;;;;;3.55;2.72;;;19.00;59.80;;;;;;5084001;28;20036;-64
2022/08/16 02:06:15;;;;;;;3.85;2.30;;;19.00;59.90;;;;;;5084718;28;20039;-61
2022/08/16 02:08:41;;;;;;;3.33;2.33;;;19.10;60.20;;;;;;5081664;28;20028;-62
2022/08/16 02:11:07;;;;;;;4.65;2.65;;;19.10;61.00;;;;;;5081601;28;20430;-61
2022/08/16 02:13:34;;;;;;;3.75;2.38;;;19.10;60.00;;;;;;5082882;28;20032;-61
2022/08/16 02:16:01;;;;;;;3.78;2.42;;;19.00;59.80;;;;;;5074059;28;20020;-63
2022/08/16 02:18:27;;;;;;;3.22;2.78;;;19.10;60.00;;;;;;5083608;28;20031;-63
2022/08/16 02:20:53;;;;;;;3.55;2.80;;;19.00;59.80;;;;;;5084843;28;20032;-62
2022/08/16 02:23:19;;;;;;;3.58;2.25;;;19.10;59.70;;;;;;5083093;28;20074;-62
2022/08/16 02:25:46;;;;;;;6.53;2.42;;;19.10;59.90;;;;;;5082153;28;20020;-63
2022/08/16 02:28:13;;;;;;;3.72;2.38;;;19.00;59.80;;;;;;5080172;28;20092;-63
2022/08/16 02:30:38;;;;;;;3.40;2.58;;;19.00;59.70;;;;;;5062712;28;20043;-64
2022/08/16 02:33:06;;;;;;;3.72;2.70;;;19.00;59.50;;;;;;5065788;28;20033;-61
2022/08/16 02:35:32;;;;;;;4.15;2.10;;;18.90;59.30;;;;;;5079763;28;20043;-62
2022/08/16 02:37:59;;;;;;;5.15;2.33;;;18.90;59.70;;;;;;5083010;28;20040;-61
2022/08/16 02:40:25;;;;;;;2.92;2.25;;;18.90;59.80;;;;;;5081305;28;20038;-62
2022/08/16 02:42:52;;;;;;;6.80;2.95;;;18.80;59.60;;;;;;5080678;28;20024;-62
2022/08/16 02:45:20;;;;;;;5.68;2.70;;;18.70;59.40;;;;;;5079481;28;20025;-59
2022/08/16 02:47:45;;;;;;;3.78;2.80;;;18.70;59.50;;;;;;5074280;28;20024;-59
2022/08/16 02:50:11;;;;;;;3.53;2.58;;;18.70;59.60;;;;;;5076992;28;20028;-61
2022/08/16 02:52:37;;;;;;;3.40;2.53;;;18.60;59.50;;;;;;5080847;28;20037;-60
2022/08/16 02:55:03;;;;;;;5.30;3.05;;;18.50;59.40;;;;;;5082146;28;20024;-60
2022/08/16 02:57:29;;;;;;;2.50;2.30;;;18.50;59.70;;;;;;5083233;28;20060;-60
2022/08/16 02:59:55;;;;;;;2.65;2.33;;;18.30;59.80;;;;;;5082441;28;20036;-60
2022/08/16 03:02:21;;;;;;;6.40;3.65;;;18.30;60.10;;;;;;5082892;28;20050;-60
2022/08/16 03:04:46;;;;;;;3.42;2.88;;;18.20;60.40;;;;;;5060752;28;20052;-61
2022/08/16 03:07:13;;;;;;;3.50;2.50;;;18.10;60.50;;;;;;5083352;28;20036;-59
2022/08/16 03:09:39;;;;;;;3.40;2.53;;;18.00;60.60;;;;;;5077982;28;20088;-62
2022/08/16 03:12:05;;;;;;;4.70;2.60;;;18.00;60.80;;;;;;5073982;28;20386;-60
2022/08/16 03:14:32;;;;;;;3.58;2.42;;;17.90;61.00;;;;;;5066399;28;20175;-59
2022/08/16 03:16:58;;;;;;;4.25;2.40;;;17.80;60.90;;;;;;5076195;28;20103;-59
2022/08/16 03:19:24;;;;;;;5.18;2.80;;;17.80;61.00;;;;;;5076703;28;21330;-60
2022/08/16 03:21:50;;;;;;;5.38;2.72;;;17.70;61.20;;;;;;5079952;28;20127;-59
2022/08/16 03:24:16;;;;;;;2.95;2.53;;;17.70;61.30;;;;;;5081258;28;20080;-61
2022/08/16 03:26:41;;;;;;;3.28;2.85;;;17.60;61.30;;;;;;5080827;28;20040;-60
2022/08/16 03:29:07;;;;;;;4.03;3.00;;;17.60;61.40;;;;;;5081886;28;20025;-59
2022/08/16 03:31:33;;;;;;;3.63;2.75;;;17.50;61.60;;;;;;5079790;28;20062;-60
2022/08/16 03:33:59;;;;;;;3.63;2.70;;;17.50;61.80;;;;;;5080418;28;20060;-60
2022/08/16 03:36:24;;;;;;;4.28;2.88;;;17.50;61.90;;;;;;5061883;28;20055;-59
2022/08/16 03:38:50;;;;;;;3.25;2.95;;;17.40;62.00;;;;;;5077348;28;20036;-60
2022/08/16 03:41:16;;;;;;;8.57;3.10;;;17.40;62.20;;;;;;5081094;28;20047;-60
2022/08/16 03:43:42;;;;;;;3.30;2.67;;;17.40;62.20;;;;;;5081897;28;20035;-60
2022/08/16 03:46:09;;;;;;;5.45;3.15;;;17.30;62.20;;;;;;5062040;28;20096;-60
2022/08/16 03:48:38;;;;;;;3.03;2.72;;;17.30;62.30;;;;;;5082770;28;20052;-59
2022/08/16 03:51:06;;;;;;;4.25;3.30;;;17.30;62.50;;;;;;5080952;28;20036;-59
2022/08/16 03:53:32;;;;;;;4.45;2.78;;;17.20;62.30;;;;;;5083942;28;20033;-60
2022/08/16 03:55:58;;;;;;;4.15;2.90;;;17.20;62.20;;;;;;5075733;28;20052;-59
2022/08/16 03:58:24;;;;;;;4.20;3.20;;;17.20;62.40;;;;;;5083449;28;20044;-61
2022/08/16 04:00:50;;;;;;;3.95;2.83;;;17.10;62.40;;;;;;5080900;28;20399;-59
2022/08/16 04:03:16;;;;;;;3.10;2.53;;;17.10;62.50;;;;;;5083483;28;20029;-59
2022/08/16 04:05:46;;;;;;;4.82;2.92;;;17.00;62.60;;;;;;5079663;28;20526;-59
2022/08/16 04:08:12;;;;;;;4.55;3.13;;;17.00;62.80;;;;;;5081768;28;20052;-59
2022/08/16 04:10:38;;;;;;;4.05;3.35;;;16.90;62.90;;;;;;5080544;28;20036;-59
2022/08/16 04:13:05;;;;;;;5.05;3.50;;;16.90;63.00;;;;;;5083064;28;20024;-59
2022/08/16 04:15:30;;;;;;;5.47;3.45;;;16.90;63.10;;;;;;5077249;28;20147;-61
2022/08/16 04:18:00;;;;;;;4.78;3.30;;;16.90;63.10;;;;;;5078532;28;20033;-59
2022/08/16 04:20:26;;;;;;;7.15;4.40;;;16.80;63.10;;;;;;5080270;28;20058;-58
2022/08/16 04:22:52;;;;;;;7.93;4.47;;;16.80;63.20;;;;;;5098353;28;20032;-60
2022/08/16 04:25:19;;;;;;;5.85;4.82;;;16.80;63.30;;;;;;5063510;28;20026;-59
2022/08/16 04:27:45;;;;;;;7.15;4.82;;;16.80;63.40;;;;;;5070047;28;20074;-59
2022/08/16 04:30:13;;;;;;;8.02;5.35;;;16.70;63.40;;;;;;5068646;28;20039;-59
2022/08/16 04:32:40;;;;;;;6.00;4.30;;;16.70;63.60;;;;;;5069140;28;20487;-59
2022/08/16 04:35:08;;;;;;;5.50;4.13;;;16.70;63.50;;;;;;5076950;28;20114;-60
2022/08/16 04:37:34;;;;;;;5.75;4.18;;;16.70;63.70;;;;;;5079727;28;20032;-59
2022/08/16 04:40:00;;;;;;;7.03;4.35;;;16.70;63.80;;;;;;5081630;28;20055;-60
2022/08/16 04:42:26;;;;;;;6.07;4.20;;;16.70;64.00;;;;;;5080050;28;20093;-59
2022/08/16 04:44:53;;;;;;;5.25;3.72;;;16.70;64.20;;;;;;5081740;28;20023;-60
2022/08/16 04:47:19;;;;;;;4.53;4.10;;;16.70;64.40;;;;;;5081768;28;20032;-59
2022/08/16 04:49:45;;;;;;;5.45;4.10;;;16.70;64.50;;;;;;4990677;28;20590;-58
2022/08/16 04:52:11;;;;;;;6.05;3.90;;;16.70;64.50;;;;;;5076431;28;20048;-59
2022/08/16 04:54:39;;;;;;;3.63;3.28;;;16.70;64.70;;;;;;5081848;28;20122;-59
2022/08/16 04:57:05;;;;;;;4.32;3.35;;;16.70;64.80;;;;;;5071800;28;20057;-60
2022/08/16 04:59:30;;;;;;;4.28;3.50;;;16.80;65.00;;;;;;5080131;28;20031;-59
2022/08/16 05:01:56;;;;;;;4.68;3.10;;;16.80;64.90;;;;;;5079566;28;20036;-60
2022/08/16 05:04:23;;;;;;;4.40;2.78;;;16.80;64.60;;;;;;5077545;28;20021;-60
2022/08/16 05:06:49;;;;;;;5.47;3.10;;;16.90;64.60;;;;;;5079318;28;20145;-58
2022/08/16 05:09:15;;;;;;;3.70;2.80;;;16.90;64.50;;;;;;5080319;28;20040;-59
2022/08/16 05:11:40;;;;;;;3.65;2.53;;;16.90;64.50;;;;;;5080223;28;20032;-59
2022/08/16 05:14:06;;;;;;;6.43;3.22;;;16.90;64.40;;;;;;5076625;28;20308;-60
2022/08/16 05:16:32;;;;;;;15.32;3.17;;;17.00;64.50;;;;;;5080789;28;20086;-59
2022/08/16 05:18:59;;;;;;;4.55;3.15;;;17.00;64.60;;;;;;5077838;28;20044;-59
2022/08/16 05:21:27;;;;;;;9.23;3.25;;;17.10;64.60;;;;;;5079262;28;20047;-60
2022/08/16 05:23:53;;;;;;;7.40;3.10;;;17.10;64.70;;;;;;5080422;28;20056;-58
2022/08/16 05:26:19;;;;;;;3.88;3.25;;;17.20;65.50;;;;;;5079317;28;20063;-59
2022/08/16 05:28:46;;;;;;;6.00;3.90;;;17.30;64.80;;;;;;5080551;28;20049;-59
2022/08/16 05:31:12;;;;;;;8.02;3.92;;;17.40;64.90;;;;;;5053749;28;20108;-60
2022/08/16 05:33:37;;;;;;;4.18;3.45;;;17.50;64.90;;;;;;5080533;28;20056;-58
2022/08/16 05:36:06;;;;;;;4.68;3.65;;;17.50;64.90;;;;;;5084440;28;20107;-60
2022/08/16 05:38:31;;;;;;;4.32;3.75;;;17.60;65.10;;;;;;5084801;28;20044;-59
2022/08/16 05:40:59;;;;;;;5.03;3.15;;;17.70;64.90;;;;;;5084376;28;20045;-59
2022/08/16 05:43:25;;;;;;;4.18;3.45;;;17.80;64.90;;;;;;5081284;28;20502;-60
2022/08/16 05:45:51;;;;;;;5.13;3.47;;;17.90;64.60;;;;;;5084218;28;20028;-60
2022/08/16 05:48:16;;;;;;;4.40;3.60;;;18.00;64.60;;;;;;5084524;28;20032;-61
2022/08/16 05:50:42;;;;;;;5.05;3.47;;;18.10;64.50;;;;;;5081123;28;20029;-60
2022/08/16 05:53:08;;;;;;;4.40;3.65;;;18.20;64.50;;;;;;5081783;28;20059;-59
2022/08/16 05:55:34;;;;;;;6.38;3.97;;;18.30;64.50;;;;;;5084313;28;20024;-59
2022/08/16 05:57:59;;;;;;;4.53;3.97;;;18.40;64.50;;;;;;5065973;28;20049;-59
2022/08/16 06:00:25;;;;;;;5.40;3.80;;;18.50;64.50;;;;;;5081396;28;20033;-58
2022/08/16 06:02:51;;;;;;;4.65;4.15;;;18.60;64.30;;;;;;5067350;28;20087;-59
2022/08/16 06:05:17;;;;;;;6.97;4.18;;;18.70;64.20;;;;;;5062513;28;20024;-59
2022/08/16 06:07:43;;;;;;;8.73;5.57;;;18.80;64.00;;;;;;5070346;28;20055;-61
2022/08/16 06:10:09;;;;;;;5.53;4.93;;;19.00;64.10;;;;;;5067134;28;20029;-60
2022/08/16 06:12:35;;;;;;;7.88;4.85;;;19.10;64.20;;;;;;5050953;28;20032;-60
2022/08/16 06:15:06;;;;;;;5.75;4.32;;;19.20;64.20;;;;;;5084773;28;20032;-60
2022/08/16 06:17:32;;;;;;;8.57;4.20;;;19.30;64.20;;;;;;5060431;28;20029;-60
2022/08/16 06:19:57;;;;;;;6.15;4.60;;;19.40;64.00;;;;;;5061586;28;20099;-60
2022/08/16 06:22:23;;;;;;;6.00;4.85;;;19.60;64.10;;;;;;5055969;28;20531;-60
2022/08/16 06:24:52;;;;;;;5.07;4.57;;;19.70;63.90;;;;;;5061801;28;20039;-60
2022/08/16 06:27:18;;;;;;;6.13;4.75;;;19.80;63.90;;;;;;5048641;28;20557;-59
2022/08/16 06:29:43;;;;;;;5.15;4.55;;;19.90;63.60;;;;;;5071797;28;20052;-60
2022/08/16 06:32:10;;;;;;;7.50;4.55;;;20.10;63.60;;;;;;5061247;28;20043;-59
2022/08/16 06:34:36;;;;;;;5.57;4.75;;;20.20;63.40;;;;;;5062259;28;20029;-59
2022/08/16 06:37:02;;;;;;;4.93;4.38;;;20.30;63.20;;;;;;5061094;28;20033;-57
2022/08/16 06:39:28;;;;;;;7.88;4.72;;;20.40;63.10;;;;;;5028399;28;20076;-59
2022/08/16 06:41:54;;;;;;;5.28;3.60;;;20.50;62.80;;;;;;5059071;28;20033;-60
2022/08/16 06:44:20;;;;;;;10.18;5.03;;;20.60;62.60;;;;;;5072032;28;20036;-59
2022/08/16 06:46:46;;;;;;;6.18;4.00;;;20.70;62.60;;;;;;5067388;28;20044;-61
2022/08/16 06:49:12;;;;;;;8.23;4.80;;;20.80;62.60;;;;;;5043876;28;20037;-60
2022/08/16 06:51:39;;;;;;;6.85;4.80;;;20.90;63.10;;;;;;5044831;28;20052;-60
2022/08/16 06:54:06;;;;;;;9.05;5.40;;;21.10;62.30;;;;;;5044613;28;21500;-58
2022/08/16 06:56:32;;;;;;;6.95;5.10;;;21.20;62.10;;;;;;5063257;28;20055;-60
2022/08/16 06:58:58;;;;;;;6.60;4.80;;;21.30;61.70;;;;;;5082960;28;20032;-59
2022/08/16 07:01:24;;;;;;;7.63;5.05;;;21.40;61.80;;;;;;5083339;28;20040;-58
2022/08/16 07:03:50;;;;;;;6.05;4.88;;;21.50;61.40;;;;;;5091048;28;20820;-58
2022/08/16 07:06:20;;;;;;;6.05;4.95;;;21.60;61.40;;;;;;5083028;28;20058;-59
2022/08/16 07:08:46;;;;;;;5.32;4.72;;;21.70;61.30;;;;;;5064079;28;20028;-59
2022/08/16 07:11:16;;;;;;;10.80;4.45;;;21.80;61.20;;;;;;5079408;28;20028;-60
2022/08/16 07:13:41;;;;;;;10.23;4.40;;;22.00;60.90;;;;;;5062880;28;20025;-60
2022/08/16 07:16:13;;;;;;;5.53;4.32;;;22.10;60.60;;;;;;5082183;28;20047;-58
2022/08/16 07:18:41;;;;;;;4.53;4.03;;;22.20;60.30;;;;;;5079931;28;20386;-59
2022/08/16 07:21:08;;;;;;;4.95;3.78;;;22.30;60.10;;;;;;5080725;28;20037;-59
2022/08/16 07:23:36;;;;;;;5.22;4.32;;;22.40;59.90;;;;;;5076377;28;20039;-60
2022/08/16 07:26:03;;;;;;;7.25;4.18;;;22.50;59.80;;;;;;5082872;28;20032;-59
2022/08/16 07:28:29;;;;;;;7.88;4.38;;;22.60;59.80;;;;;;5083751;28;20035;-59
2022/08/16 07:30:55;;;;;;;5.80;4.53;;;22.70;59.80;;;;;;5063976;28;20387;-60
2022/08/16 07:33:21;;;;;;;4.90;4.00;;;22.90;59.90;;;;;;5083795;28;20038;-59
2022/08/16 07:35:46;;;;;;;6.18;4.10;;;23.00;59.60;;;;;;5081981;28;20096;-60
2022/08/16 07:38:12;;;;;;;7.90;4.32;;;23.20;59.50;;;;;;5082295;28;20084;-60
2022/08/16 07:40:38;;;;;;;7.05;4.15;;;23.30;59.20;;;;;;5082367;28;20040;-59
2022/08/16 07:43:04;;;;;;;6.57;4.63;;;23.40;58.80;;;;;;5082869;28;20039;-60
2022/08/16 07:45:32;;;;;;;8.13;4.43;;;23.60;58.90;;;;;;5080509;28;20029;-61
2022/08/16 07:47:58;;;;;;;4.82;3.97;;;23.70;58.80;;;;;;5078540;28;20028;-60
2022/08/16 07:50:24;;;;;;;10.18;4.00;;;23.80;58.30;;;;;;5018934;28;20036;-60
2022/08/16 07:52:50;;;;;;;5.00;3.97;;;23.90;58.10;;;;;;5082759;28;20395;-60
2022/08/16 07:55:16;;;;;;;4.63;3.40;;;24.00;57.70;;;;;;5081897;28;20033;-60
2022/08/16 07:57:43;;;;;;;6.32;3.45;;;24.20;57.50;;;;;;5077162;28;20051;-61
2022/08/16 08:00:10;;;;;;;6.57;3.35;;;24.30;57.20;;;;;;5078352;28;20048;-60
2022/08/16 08:02:36;;;;;;;5.32;3.50;;;24.40;57.20;;;;;;5080517;28;20067;-61
2022/08/16 08:05:02;;;;;;;5.63;3.13;;;24.50;57.00;;;;;;5082740;28;20036;-61
2022/08/16 08:07:28;;;;;;;3.58;3.20;;;24.60;56.80;;;;;;5081388;28;20025;-62
2022/08/16 08:09:54;;;;;;;3.67;3.15;;;24.80;56.20;;;;;;5082642;28;20116;-61
2022/08/16 08:12:20;;;;;;;5.28;3.38;;;24.90;56.20;;;;;;5080746;28;20067;-60
2022/08/16 08:14:47;;;;;;;4.47;2.72;;;25.00;55.80;;;;;;5082241;28;20021;-60
2022/08/16 08:17:13;;;;;;;3.83;2.60;;;25.10;55.80;;;;;;5074932;28;20052;-61
2022/08/16 08:19:40;;;;;;;3.83;2.83;;;25.20;55.60;;;;;;5082589;28;20656;-61
2022/08/16 08:22:06;;;;;;;3.85;2.55;;;25.30;55.50;;;;;;5080845;28;20036;-62
2022/08/16 08:24:33;;;;;;;7.60;3.08;;;25.40;55.60;;;;;;5082195;28;20025;-59
2022/08/16 08:27:01;;;;;;;4.28;2.83;;;25.60;55.10;;;;;;5079977;28;20033;-61
2022/08/16 08:29:26;;;;;;;5.70;2.90;;;25.70;54.60;;;;;;5082058;28;20036;-61
2022/08/16 08:31:52;;;;;;;3.95;2.75;;;25.70;53.80;;;;;;5063087;28;20029;-60
2022/08/16 08:34:19;;;;;;;3.80;2.88;;;25.80;53.80;;;;;;5082307;28;20040;-62
2022/08/16 08:36:47;;;;;;;5.63;2.63;;;25.90;53.50;;;;;;5080990;28;20028;-60
2022/08/16 08:39:14;;;;;;;4.95;2.90;;;26.00;53.60;;;;;;5081970;28;20028;-61
2022/08/16 08:41:41;;;;;;;4.72;2.83;;;26.10;53.40;;;;;;5080231;28;20044;-61
2022/08/16 08:44:07;;;;;;;3.30;2.83;;;26.20;53.50;;;;;;5081797;28;20036;-61
2022/08/16 08:46:32;;;;;;;4.13;2.72;;;26.30;53.20;;;;;;5080947;28;20103;-61
2022/08/16 08:48:58;;;;;;;5.22;2.60;;;26.30;53.30;;;;;;5081191;28;20519;-62
2022/08/16 08:51:24;;;;;;;5.47;3.53;;;26.40;52.90;;;;;;5080891;28;20095;-60
2022/08/16 08:53:50;;;;;;;4.93;3.58;;;26.50;52.60;;;;;;5078750;28;20021;-61
2022/08/16 08:56:16;;;;;;;3.40;2.72;;;26.60;52.20;;;;;;5075396;28;20075;-60
2022/08/16 08:58:42;;;;;;;8.75;3.45;;;26.60;52.30;;;;;;5079816;28;20503;-60
2022/08/16 09:01:08;;;;;;;6.53;3.38;;;26.70;52.00;;;;;;5078226;28;20033;-61
2022/08/16 09:03:35;;;;;;;7.68;3.00;;;26.90;51.70;;;;;;5081959;28;20036;-61
2022/08/16 09:06:03;;;;;;;21.67;3.10;;;26.90;51.70;;;;;;5078564;28;20086;-62
2022/08/16 09:08:30;;;;;;;4.85;3.08;;;27.00;51.50;;;;;;5080651;28;20090;-61
2022/08/16 09:10:57;;;;;;;3.38;2.90;;;27.00;51.40;;;;;;5081212;28;20427;-62
2022/08/16 09:13:25;;;;;;;5.95;2.90;;;27.10;51.10;;;;;;5079765;28;20403;-61
2022/08/16 09:15:52;;;;;;;5.15;3.38;;;27.20;51.10;;;;;;5077658;28;20039;-62
2022/08/16 09:18:18;;;;;;;4.57;3.03;;;27.30;50.70;;;;;;5083701;28;20028;-61
2022/08/16 09:20:45;;;;;;;6.93;2.78;;;27.50;50.60;;;;;;5075960;28;20078;-61
2022/08/16 09:23:12;;;;;;;4.10;2.88;;;27.60;50.40;;;;;;5082257;28;20029;-61
2022/08/16 09:25:38;;;;;;;4.78;2.95;;;27.60;49.90;;;;;;5082064;28;20033;-62
2022/08/16 09:28:04;;;;;;;4.85;2.92;;;27.70;50.20;;;;;;5064659;28;20428;-61
2022/08/16 09:30:31;;;;;;;4.13;2.85;;;27.90;49.90;;;;;;5082471;28;20032;-62
2022/08/16 09:32:58;;;;;;;5.72;3.00;;;28.00;49.70;;;;;;5082106;28;20538;-61
2022/08/16 09:35:23;;;;;;;7.53;3.20;;;28.10;49.30;;;;;;5083135;28;20096;-61
2022/08/16 09:37:49;;;;;;;3.40;2.50;;;28.20;48.80;;;;;;5082509;28;20079;-60
2022/08/16 09:40:15;;;;;;;4.30;2.40;;;28.40;48.60;;;;;;5079389;28;20633;-63
2022/08/16 09:42:41;;;;;;;4.65;3.15;;;28.50;48.70;;;;;;5073588;28;20713;-61
2022/08/16 09:45:07;;;;;;;4.40;3.05;;;28.60;48.20;;;;;;5080733;28;20021;-59
2022/08/16 09:47:38;;;;;;;9.15;3.70;;;28.70;47.80;;;;;;5079460;28;20131;-59
2022/08/16 09:50:09;;;;;;;4.85;2.75;;;28.80;46.90;;;;;;4985796;28;20025;-62
2022/08/16 09:52:36;;;;;;;3.90;2.67;;;28.90;47.80;;;;;;5080553;28;20718;-60
2022/08/16 09:55:06;;;;;;;5.68;2.78;;;29.00;47.20;;;;;;5082077;28;20060;-62
2022/08/16 09:57:32;;;;;;;4.18;2.65;;;29.10;47.20;;;;;;5080619;28;20060;-63
2022/08/16 10:00:00;;;;;;;7.30;2.65;;;29.20;46.80;;;;;;5076157;28;20063;-61
2022/08/16 10:02:26;;;;;;;8.75;2.45;;;29.40;46.70;;;;;;5078125;28;20332;-61
2022/08/16 10:04:52;;;;;;;3.40;2.22;;;29.50;46.10;;;;;;5078538;28;21393;-62
2022/08/16 10:07:18;;;;;;;3.72;1.90;;;29.50;45.40;;;;;;5079672;28;20035;-62
2022/08/16 10:09:44;;;;;;;3.78;2.25;;;29.60;45.70;;;;;;5080345;28;20032;-62
2022/08/16 10:14:54;;;;;;;8.35;2.03;;;29.80;45.80;;;;;;5078342;28;20039;-62
2022/08/16 10:17:20;;;;;;;2.38;1.75;;;29.80;44.60;;;;;;5078569;28;20036;-63
2022/08/16 10:19:46;;;;;;;2.72;2.00;;;29.90;44.40;;;;;;5080646;28;20435;-62
2022/08/16 10:22:15;;;;;;;3.78;1.75;;;29.90;45.00;;;;;;5083210;28;20479;-63
2022/08/16 10:24:40;;;;;;;3.58;2.10;;;30.00;44.70;;;;;;5084149;28;20036;-61
2022/08/16 10:27:07;;;;;;;5.32;2.30;;;30.10;44.00;;;;;;5082092;28;20028;-62
2022/08/16 10:29:33;;;;;;;2.67;1.50;;;30.20;44.20;;;;;;5085170;28;20032;-63
2022/08/16 10:31:59;;;;;;;2.05;1.40;;;30.30;43.90;;;;;;5080271;28;20061;-61
2022/08/16 10:34:24;;;;;;;7.63;1.50;;;30.50;43.50;;;;;;5085105;28;20048;-63
2022/08/16 10:36:50;;;;;;;2.40;1.70;;;30.50;43.50;;;;;;5083193;28;20459;-62
2022/08/16 10:39:16;;;;;;;2.03;1.45;;;30.70;42.30;;;;;;5085486;28;20032;-63
2022/08/16 10:41:42;;;;;;;6.32;1.63;;;30.60;41.90;;;;;;5081766;28;20048;-64
2022/08/16 10:44:08;;;;;;;2.70;1.55;;;30.70;41.90;;;;;;5083134;28;20536;-64
2022/08/16 10:46:34;;;;;;;1.83;1.63;;;30.70;41.80;;;;;;5083045;28;20088;-64
2022/08/16 10:49:00;;;;;;;3.00;1.83;;;30.70;40.90;;;;;;5079516;28;20028;-62
2022/08/16 10:51:26;;;;;;;4.70;1.60;;;30.70;40.40;;;;;;5083698;28;20593;-64
2022/08/16 10:53:52;;;;;;;2.53;1.58;;;30.60;40.60;;;;;;5083874;28;20083;-62
2022/08/16 10:56:18;;;;;;;2.67;1.50;;;30.50;39.90;;;;;;5077357;28;20665;-62
2022/08/16 10:58:43;;;;;;;4.82;1.80;;;30.30;39.60;;;;;;5062905;28;20033;-62
2022/08/16 11:01:11;;;;;;;2.20;1.50;;;30.20;39.80;;;;;;5065853;28;20474;-63
2022/08/16 11:03:37;;;;;;;3.92;1.90;;;30.10;40.40;;;;;;5064512;28;20041;-62
2022/08/16 11:06:05;;;;;;;4.75;1.90;;;30.00;40.10;;;;;;5063122;28;20466;-62
2022/08/16 11:08:32;;;;;;;3.13;1.55;;;29.90;40.10;;;;;;5061010;28;20044;-62
2022/08/16 11:10:57;;;;;;;2.63;1.45;;;29.90;40.50;;;;;;5064113;28;20025;-62
2022/08/16 11:13:25;;;;;;;5.68;2.40;;;29.90;39.60;;;;;;5064577;28;20029;-63
2022/08/16 11:15:52;;;;;;;4.13;1.92;;;29.90;39.00;;;;;;5059460;28;20036;-64
2022/08/16 11:18:18;;;;;;;4.35;1.40;;;29.90;39.80;;;;;;5060804;28;20044;-62
2022/08/16 11:20:46;;;;;;;1.92;1.40;;;29.90;39.60;;;;;;5062199;28;20066;-64
2022/08/16 11:23:12;;;;;;;3.05;1.23;;;29.80;39.60;;;;;;5065050;28;20051;-63
2022/08/16 11:25:38;;;;;;;4.18;1.42;;;29.80;39.60;;;;;;5072062;28;20127;-63
2022/08/16 11:28:05;;;;;;;7.50;1.40;;;29.80;40.10;;;;;;5066485;28;20037;-62
2022/08/16 11:30:32;;;;;;;2.83;1.60;;;29.80;39.90;;;;;;5067012;28;20017;-62
2022/08/16 11:33:00;;;;;;;2.53;1.45;;;29.80;39.20;;;;;;5067046;28;20032;-62
2022/08/16 11:35:28;;;;;;;2.65;1.52;;;29.80;39.00;;;;;;5083175;28;20092;-63
2022/08/16 11:38:02;;;;;;;2.78;1.50;;;29.90;39.10;;;;;;5057376;28;20025;-62
2022/08/16 11:40:31;;;;;;;2.78;1.35;;;29.90;38.50;;;;;;5064255;28;20045;-62
2022/08/16 11:42:57;;;;;;;3.65;1.42;;;29.90;38.20;;;;;;5066174;28;20772;-63
2022/08/16 11:45:23;;;;;;;5.60;1.45;;;29.80;39.20;;;;;;5052816;28;20037;-63
2022/08/16 11:47:49;;;;;;;4.22;1.50;;;29.80;38.50;;;;;;5071468;28;20029;-62
2022/08/16 11:50:15;;;;;;;4.00;1.50;;;29.70;38.00;;;;;;4965876;28;20032;-62
2022/08/16 11:52:41;;;;;;;4.13;1.90;;;29.70;38.50;;;;;;5059198;28;20097;-63
2022/08/16 11:55:10;;;;;;;6.75;1.90;;;29.80;38.90;;;;;;5068341;28;20028;-64
2022/08/16 11:57:37;;;;;;;4.57;1.45;;;29.90;38.30;;;;;;5074436;28;20056;-64
2022/08/16 12:00:06;;;;;;;9.77;1.70;;;30.10;38.50;;;;;;5082174;28;20028;-63
2022/08/16 12:02:32;;;;;;;8.10;1.70;;;30.20;38.70;;;;;;5080462;28;20095;-65
2022/08/16 12:04:58;;;;;;;3.90;1.50;;;30.30;38.50;;;;;;5079639;28;20021;-66
2022/08/16 12:07:23;;;;;;;2.17;1.50;;;30.40;37.60;;;;;;5081781;28;20043;-65
2022/08/16 12:09:50;;;;;;;4.78;1.40;;;30.60;37.80;;;;;;5082392;28;20029;-64
2022/08/16 12:12:16;;;;;;;4.78;1.73;;;30.70;38.80;;;;;;5079542;28;20394;-66
2022/08/16 12:14:41;;;;;;;5.45;1.50;;;30.90;38.30;;;;;;5082022;28;20036;-64
2022/08/16 12:17:07;;;;;;;2.50;1.40;;;31.00;37.70;;;;;;5081443;28;20281;-65
2022/08/16 12:19:33;;;;;;;4.78;2.28;;;31.00;37.50;;;;;;5082150;28;20092;-64
2022/08/16 12:21:59;;;;;;;5.20;1.70;;;31.10;37.90;;;;;;5081814;28;20083;-64
2022/08/16 12:24:25;;;;;;;4.07;1.77;;;31.10;38.10;;;;;;5081742;28;20052;-64
2022/08/16 12:26:52;;;;;;;4.18;1.77;;;31.30;37.40;;;;;;5061108;28;20025;-64
2022/08/16 12:29:18;;;;;;;1.92;1.40;;;31.40;36.50;;;;;;5080052;28;20033;-65
2022/08/16 12:31:44;;;;;;;2.50;1.73;;;31.50;36.40;;;;;;5073367;28;20427;-67
2022/08/16 12:34:10;;;;;;;6.13;1.70;;;31.50;35.50;;;;;;5089679;28;20039;-62
2022/08/16 12:36:36;;;;;;;4.05;1.70;;;31.60;35.60;;;;;;5085642;28;20482;-64
2022/08/16 12:39:03;;;;;;;4.93;1.67;;;31.60;35.80;;;;;;5079059;28;20467;-65
2022/08/16 12:41:31;;;;;;;5.43;1.80;;;31.60;35.80;;;;;;5078730;28;20037;-63
2022/08/16 12:43:57;;;;;;;2.53;1.55;;;31.60;35.80;;;;;;5080202;28;20036;-64
2022/08/16 12:46:23;;;;;;;2.17;1.30;;;31.60;35.90;;;;;;5078821;28;20024;-62